PILOTS ONLINE: 271    ATC ONLINE: 48

KNXP - Twentynine Palms (Self) Airport

Location

City Twentynine Palms
Country  United States
Latitude 34° 17' 46" N
Longitude 116° 9' 43" W
Elevation 2051 ft
Type Medium Airport

Runways

10/28 8015 ft / 150 ft

Weather

METAR
2014/07/29 03:56
KNXP 290356Z 29005KT 10SM SCT120 33/13 A3008 RMK AO2 SLP145 T03280128 
TAF
2014/07/29 03:26
TAF KNXP 2903/3003 27008KT 9999 FEW100 SCT200 QNH3004INS 
      BECMG 2914/2916 VRB05KT 9999 FEW100 QNH2997INS T27/2913Z T42/2922Z

Outbound flights

Inbound flights